Flight Track Log - Related Links

Times and Time Zones

All times are in EDT time to prevent confusion due to time zone crossing. See the AVA28 flight status page for this flight to view local times or setup timezone preferences in your user account.


Time Position Orientation Groundspeed Altitude Reporting Facility
EDT Latitude Longitude Course Direction KTS MPH feet Rate Location/Type
Wed 02:42:58 PM 24.8625 -79.4286 345° North 452 520 36,000  Level Miami Center
Wed 02:43:58 PM 24.9853 -79.4700 343° North 452 520 36,000  Level Miami Center
Wed 02:44:58 PM 25.1033 -79.5161 341° North 452 520 36,000  Level Miami Center
Wed 02:45:58 PM 25.2239 -79.5603 342° North 452 520 36,000 -50 Level Miami Center
Wed 02:46:58 PM 25.3442 -79.6042 342° North 452 520 35,900 -50 Descending Miami Center
Wed 02:47:58 PM 25.4603 -79.6483 341° North 446 513 35,900  Level Miami Center
Wed 02:48:00 PM 24.8312 -80.0760 345° North  Level Estimated
Wed 02:48:58 PM 25.5744 -79.6900 342° North 446 513 35,900  Level Miami Center
Wed 02:49:58 PM 25.6906 -79.7342 341° North 441 507 35,900 -150 Level Miami Center
Wed 02:50:58 PM 25.8089 -79.7786 341° North 441 507 35,600 -650 Descending Miami Center
Wed 02:51:58 PM 25.9292 -79.8231 342° North 441 507 34,600 -950 Descending Miami Center
Wed 02:52:58 PM 26.0514 -79.8678 342° North 446 513 33,700 -950 Descending Miami Center
Wed 02:53:58 PM 26.1675 -79.9125 341° North 451 519 32,700 -1,000 Descending Miami Center
Wed 02:54:58 PM 26.2878 -79.9594 341° North 451 519 31,700 -1,000 Descending Miami Center
Wed 02:55:58 PM 26.3914 -79.9992 341° North 437 503 30,700 -1,000 Descending Miami Center
Wed 02:56:58 PM 26.5178 -80.0467 341° North 432 497 29,700 -950 Descending Miami Center
Wed 02:57:58 PM 26.6169 -80.0867 340° North 427 491 28,800 -1,000 Descending Miami Center
Wed 02:58:58 PM 26.7475 -80.1344 342° North 433 498 27,700 -1,000 Descending Miami Center
Wed 02:59:58 PM 26.8406 -80.1742 339° North 427 491 26,800 -950 Descending Miami Center
Wed 03:00:58 PM 26.9461 -80.2144 341° North 404 465 25,800 -1,000 Descending Miami Center
Wed 03:01:58 PM 27.0497 -80.2525 342° North 398 458 24,800 -900 Descending Miami Center
Wed 03:02:58 PM 27.1511 -80.2906 342° North 386 444 24,000 -700 Descending Miami Center
Wed 03:03:58 PM 27.2506 -80.3283 341° North 380 437 23,400 -800 Descending Miami Center
Wed 03:04:58 PM 27.3411 -80.3781 334° Northwest 375 432 22,400 -950 Descending Miami Center
Wed 03:05:58 PM 27.4119 -80.4667 312° West 369 425 21,500 -1,100 Descending Miami Center
Wed 03:06:58 PM 27.4725 -80.5575 307° West 369 425 20,200 -1,400 Descending Miami Center
Wed 03:07:58 PM 27.5069 -80.6686 289° West 369 425 18,700 -1,200 Descending Miami Center
Wed 03:08:58 PM 27.5825 -80.7392 320° Northwest 335 386 17,800 -1,000 Descending Miami Center
Wed 03:09:58 PM 27.6594 -80.8214 317° Northwest 342 394 16,700 -1,000 Descending Miami Center
Wed 03:10:58 PM 27.7225 -80.8869 317° Northwest 342 394 15,800 -1,280 Descending Miami Center
Wed 03:12:42 PM 27.8500 -81.0167 318° Northwest 335 386 13,200 -1,537 Descending Orlando TRACON
Wed 03:13:42 PM 27.9167 -81.0833 319° Northwest 328 377 11,600 -1,100 Descending Orlando TRACON
Wed 03:14:42 PM 28.0000 -81.1333 332° Northwest 325 374 11,000 -600 Descending Orlando TRACON
Wed 03:15:42 PM 28.0833 -81.1667 341° North 315 362 10,400 -545 Descending Orlando TRACON
Wed 03:16:43 PM 28.1667 -81.1833 350° North 283 326 9,900 -496 Descending Orlando TRACON
Wed 03:17:43 PM 28.2500 -81.1833 360° North 286 329 9,400 -474 Descending Orlando TRACON
Wed 03:18:37 PM 28.3167 -81.1833 360° North 284 327 9,000 -211 Descending Orlando TRACON
Wed 03:19:37 PM 28.4000 -81.1833 360° North 287 330 9,000 -350 Level Orlando TRACON
Wed 03:20:37 PM 28.4667 -81.1833 360° North 252 290 8,300 -1,350 Descending Orlando TRACON
Wed 03:21:37 PM 28.5333 -81.1833 360° North 250 288 6,300 -1,900 Descending Orlando TRACON
Wed 03:22:37 PM 28.6000 -81.1833 360° North 242 278 4,500 -1,140 Descending Orlando TRACON
Wed 03:23:38 PM 28.6500 -81.2167 330° Northwest 208 239 4,000 -248 Descending Orlando TRACON
Wed 03:24:38 PM 28.6333 -81.2833 254° West 208 239 4,000 -300 Level Orlando TRACON
Wed 03:25:38 PM 28.5833 -81.2833 180° South 191 220 3,400 -942 Descending Orlando TRACON
Wed 03:26:39 PM 28.5333 -81.2833 180° South 189 217 2,100 -1,228 Descending Orlando TRACON
Wed 03:27:45 PM 28.4833 -81.2833 180° South 144 166 800 -1,182 Descending Orlando TRACON

Login

Don't have an account? Register now (free) for customized features, flight alerts, and more!